Cloncurry, Queensland

3:10 AM AEST on September 06, 2015 (GMT +1000)
Cloncurry | | Change Station
CLOSE
Current Station
Airport
Location: Cloncurry Airport,
Elevation: 614 ft
Nearby Weather Stations

Elev 614 ft 20.67 °S, 140.50 °E | Updated 10 minutes ago

Clear
Clear
57 °F
Feels Like 57 °F
N
8
Wind Variable Wind from South
Gusts mph

Today
High -- | Low -- °F
--% Chance of Precip.
Yesterday
High -- | Low -- °F
Precip. -- in
6:43 AM 6:30 PM
Waning Gibbous, 47% visible
Pressure 30.04 in
Visibility -9999.0 miles
Clouds
Dew Point 28 °F
Humidity 33%
Rainfall 0.00 in
Snow Depth Not available.
UV Not available.
Pollen Not available.
Air Quality Not available.
Flu Activity Not available.
METAR YCCY 051700Z AUTO 19007KT //// // ////// 14/M02 Q1017
Pressure 30.04 in
Visibility -9999.0 miles
Clouds
Dew Point 28 °F
Humidity 33%
Rainfall 0.00 in
Snow Depth Not available.
UV Not available.
Pollen Not available.
Air Quality Not available.
Flu Activity Not available.
METAR YCCY 051700Z AUTO 19007KT //// // ////// 14/M02 Q1017

10-Day Weather Forecast

×

Almanac

Astronomy

Sep. 06, 2015 Rise Set
Actual Time
Civil Twilight
Nautical Twilight
Astronomical Twilight
Moon
Length of Visible Light
Length of Day
Tomorrow will be .
, % of the Moon is Illuminated

Today's Extremes

Country Highs Country Lows

Community

WunderPhotos

Upload Photos

1,852,504 photos uploaded!

WunderBlogs® & News

Nearby

Air Quality

  Air Quality AQ Index Pollutant
Not available.

Snow Depth

Station Depth Elevation

Earthquake Activity

City Distance Mag. Time & Date
Minimum magnitude displayed is 2.5.

Coastal Water Temperatures

Place Temperature

Stations

Nearby Weather Stations

Station Location Temp. Windchill Dew Point Humidity Wind Precip. Elev Updated Type